Time;durP1;ratioP1;P1;durP2;ratioP2;P2;SDS_P1;SDS_P2;PMS_P1;PMS_P2;Temp;Humidity;BMP_temperature;BMP_pressure;BME280_temperature;BME280_humidity;BME280_pressure;Samples;Min_cycle;Max_cycle;Signal;HPM_P1;HPM_P2
2024/03/30 00:03:40;;;;;;;;;;;12.00;99.90;;;;;;8381761;28;19994;-70
2024/03/30 00:07:44;;;;;;;;;;;11.90;99.90;;;;;;8381425;28;20358;-70
2024/03/30 00:11:45;;;;;;;;;;;11.90;99.90;;;;;;8366183;28;19924;-70
2024/03/30 00:15:45;;;;;;;;;;;11.80;99.90;;;;;;8384990;28;19974;-71
2024/03/30 00:19:47;;;;;;;;;;;11.80;99.90;;;;;;8367008;28;19931;-70
2024/03/30 00:23:48;;;;;;;;;;;11.80;99.90;;;;;;8365097;28;19928;-70
2024/03/30 00:27:49;;;;;;;;;;;11.70;99.90;;;;;;8360297;28;19970;-70
2024/03/30 00:31:50;;;;;;;;;;;11.70;99.90;;;;;;8366218;28;19927;-70
2024/03/30 00:35:53;;;;;;;;;;;11.70;99.90;;;;;;8369544;28;20019;-70
2024/03/30 00:39:54;;;;;;;;;;;11.70;99.90;;;;;;8365223;28;19926;-70
2024/03/30 00:43:55;;;;;;;;;;;11.60;99.90;;;;;;8382108;28;20004;-70
2024/03/30 00:47:56;;;;;;;;;;;11.60;99.90;;;;;;8388895;28;19924;-70
2024/03/30 00:51:57;;;;;;;;;;;11.60;99.90;;;;;;8380569;28;19927;-70
2024/03/30 00:55:59;;;;;;;;;;;11.60;99.90;;;;;;8364443;28;19963;-70
2024/03/30 01:00:00;;;;;;;;;;;11.60;99.90;;;;;;8365832;28;20341;-70
2024/03/30 01:04:02;;;;;;;;;;;11.50;99.90;;;;;;8363047;28;19932;-70
2024/03/30 01:08:04;;;;;;;;;;;11.50;99.90;;;;;;8365620;28;19952;-70
2024/03/30 01:12:05;;;;;;;;;;;11.50;99.90;;;;;;8384940;28;19928;-70
2024/03/30 01:16:10;;;;;;;;;;;11.50;99.90;;;;;;8407349;28;19932;-70
2024/03/30 01:20:11;;;;;;;;;;;11.40;99.90;;;;;;8372776;28;19931;-71
2024/03/30 01:24:12;;;;;;;;;;;11.40;99.90;;;;;;8373541;28;20263;-70
2024/03/30 01:28:13;;;;;;;;;;;11.40;99.90;;;;;;8382667;28;19982;-70
2024/03/30 01:32:14;;;;;;;;;;;11.30;99.90;;;;;;8366395;28;19972;-70
2024/03/30 01:36:15;;;;;;;;;;;11.20;99.90;;;;;;8370659;28;20016;-70
2024/03/30 01:40:15;;;;;;;;;;;11.20;99.90;;;;;;8374119;28;20025;-71
2024/03/30 01:44:16;;;;;;;;;;;11.10;99.90;;;;;;8373859;28;20092;-70
2024/03/30 01:48:17;;;;;;;;;;;11.10;99.90;;;;;;8382128;28;19928;-70
2024/03/30 01:52:19;;;;;;;;;;;11.10;99.90;;;;;;8355410;28;19920;-70
2024/03/30 01:56:21;;;;;;;;;;;11.10;99.90;;;;;;8372245;28;19942;-70
2024/03/30 02:00:22;;;;;;;;;;;11.10;99.90;;;;;;8367547;28;19928;-70
2024/03/30 02:04:24;;;;;;;;;;;11.10;99.90;;;;;;8393956;28;19931;-71
2024/03/30 02:08:26;;;;;;;;;;;11.10;99.90;;;;;;8371409;28;20197;-70
2024/03/30 02:12:28;;;;;;;;;;;11.10;99.90;;;;;;8358286;28;19931;-70
2024/03/30 02:16:29;;;;;;;;;;;11.10;99.90;;;;;;8358059;28;19926;-70
2024/03/30 02:20:30;;;;;;;;;;;11.10;99.90;;;;;;8370899;28;19924;-70
2024/03/30 02:24:31;;;;;;;;;;;11.10;99.90;;;;;;8370157;28;19963;-70
2024/03/30 02:28:32;;;;;;;;;;;11.10;99.90;;;;;;8371606;28;20032;-70
2024/03/30 02:32:33;;;;;;;;;;;11.00;99.90;;;;;;8371627;28;20012;-70
2024/03/30 02:36:34;;;;;;;;;;;11.00;99.90;;;;;;8371283;28;20033;-70
2024/03/30 02:40:37;;;;;;;;;;;11.00;99.90;;;;;;8371059;28;19955;-70
2024/03/30 02:49:35;;;;;;;;;;;11.00;99.90;;;;;;8388238;28;19915;-70
2024/03/30 02:53:35;;;;;;;;;;;11.00;99.90;;;;;;8351620;28;20587;-70
2024/03/30 02:57:36;;;;;;;;;;;11.00;99.90;;;;;;8369097;28;19935;-70
2024/03/30 03:01:37;;;;;;;;;;;11.00;99.90;;;;;;8370221;28;20325;-70
2024/03/30 03:05:38;;;;;;;;;;;11.00;99.90;;;;;;8355170;28;19928;-70
2024/03/30 03:09:39;;;;;;;;;;;11.00;99.90;;;;;;8368711;28;19927;-70
2024/03/30 03:13:40;;;;;;;;;;;10.90;99.90;;;;;;8369472;28;19966;-70
2024/03/30 03:17:41;;;;;;;;;;;10.90;99.90;;;;;;8368818;28;19924;-70
2024/03/30 03:21:41;;;;;;;;;;;10.80;99.90;;;;;;8379984;28;19920;-71
2024/03/30 03:25:42;;;;;;;;;;;10.80;99.90;;;;;;8369046;28;20386;-70
2024/03/30 03:29:43;;;;;;;;;;;10.80;99.90;;;;;;8381656;28;20628;-70
2024/03/30 03:33:44;;;;;;;;;;;10.70;99.90;;;;;;8364900;28;19928;-70
2024/03/30 03:37:44;;;;;;;;;;;10.70;99.90;;;;;;8368621;28;20367;-70
2024/03/30 03:41:45;;;;;;;;;;;10.60;99.90;;;;;;8364251;28;19924;-70
2024/03/30 03:45:46;;;;;;;;;;;10.60;99.90;;;;;;8370897;28;19928;-70
2024/03/30 03:49:47;;;;;;;;;;;10.60;99.90;;;;;;8399543;28;20288;-70
2024/03/30 03:53:48;;;;;;;;;;;10.60;99.90;;;;;;8364859;28;19924;-70
2024/03/30 03:57:49;;;;;;;;;;;10.70;99.90;;;;;;8368413;28;19920;-70
2024/03/30 04:01:50;;;;;;;;;;;10.70;99.90;;;;;;8351678;28;20385;-71
2024/03/30 04:05:50;;;;;;;;;;;10.60;99.90;;;;;;8366796;28;19966;-70
2024/03/30 04:09:51;;;;;;;;;;;10.60;99.90;;;;;;8368267;28;20354;-70
2024/03/30 04:13:52;;;;;;;;;;;10.50;99.90;;;;;;8359988;28;20245;-70
2024/03/30 04:17:53;;;;;;;;;;;10.50;99.90;;;;;;8368505;28;19927;-70
2024/03/30 04:21:56;;;;;;;;;;;10.50;99.90;;;;;;8367505;28;20385;-70
2024/03/30 04:26:04;;;;;;;;;;;10.50;99.90;;;;;;8366664;28;19924;-70
2024/03/30 04:30:07;;;;;;;;;;;10.40;99.90;;;;;;8369256;28;19928;-70
2024/03/30 04:34:08;;;;;;;;;;;10.40;99.90;;;;;;8383424;28;19928;-70
2024/03/30 04:38:09;;;;;;;;;;;10.40;99.90;;;;;;8371930;28;19921;-70
2024/03/30 04:42:10;;;;;;;;;;;10.40;99.90;;;;;;8368357;28;19935;-70
2024/03/30 04:46:12;;;;;;;;;;;10.40;99.90;;;;;;8369319;28;19931;-70
2024/03/30 04:50:13;;;;;;;;;;;10.30;99.90;;;;;;8352361;28;19928;-70
2024/03/30 04:54:13;;;;;;;;;;;10.30;99.90;;;;;;8364941;28;19935;-70
2024/03/30 04:58:14;;;;;;;;;;;10.40;99.90;;;;;;8380395;28;20415;-70
2024/03/30 05:02:15;;;;;;;;;;;10.40;99.90;;;;;;8380985;28;19946;-70
2024/03/30 05:06:16;;;;;;;;;;;10.40;99.90;;;;;;8403905;28;19924;-70
2024/03/30 05:10:17;;;;;;;;;;;10.40;99.90;;;;;;8402028;28;20367;-70
2024/03/30 05:14:18;;;;;;;;;;;10.40;99.90;;;;;;8398982;28;19939;-70
2024/03/30 05:18:20;;;;;;;;;;;10.40;99.90;;;;;;8400835;28;19924;-70
2024/03/30 05:22:21;;;;;;;;;;;10.40;99.90;;;;;;8384138;28;20007;-70
2024/03/30 05:26:22;;;;;;;;;;;10.40;99.90;;;;;;8391338;28;19968;-70
2024/03/30 05:30:23;;;;;;;;;;;10.40;99.90;;;;;;8388121;28;19998;-71
2024/03/30 05:34:24;;;;;;;;;;;10.30;99.90;;;;;;8419950;28;19920;-71
2024/03/30 05:38:25;;;;;;;;;;;10.30;99.90;;;;;;8373219;28;19920;-71
2024/03/30 05:42:25;;;;;;;;;;;10.30;99.90;;;;;;8389128;28;20004;-71
2024/03/30 05:46:26;;;;;;;;;;;10.30;99.90;;;;;;8397411;28;19923;-71
2024/03/30 05:50:27;;;;;;;;;;;10.30;99.90;;;;;;8400495;28;19963;-71
2024/03/30 05:54:28;;;;;;;;;;;10.30;99.90;;;;;;8400183;28;19924;-70
2024/03/30 05:58:30;;;;;;;;;;;10.30;99.90;;;;;;8408765;28;19970;-71
2024/03/30 06:02:31;;;;;;;;;;;10.30;99.90;;;;;;8388083;28;20062;-71
2024/03/30 06:06:32;;;;;;;;;;;10.30;99.90;;;;;;8402433;28;20012;-71
2024/03/30 06:10:33;;;;;;;;;;;10.30;99.90;;;;;;8408076;28;19924;-71
2024/03/30 06:14:33;;;;;;;;;;;10.30;99.90;;;;;;8367468;28;20013;-71
2024/03/30 06:18:43;;;;;;;;;;;10.40;99.90;;;;;;8382794;28;20014;-71
2024/03/30 06:22:45;;;;;;;;;;;10.40;99.90;;;;;;8389204;28;19924;-71
2024/03/30 06:26:46;;;;;;;;;;;10.40;99.90;;;;;;8415479;28;19998;-71
2024/03/30 06:30:47;;;;;;;;;;;10.40;99.90;;;;;;8407945;28;20014;-72
2024/03/30 06:34:48;;;;;;;;;;;10.50;99.90;;;;;;8387639;28;19984;-71
2024/03/30 06:38:49;;;;;;;;;;;10.50;99.90;;;;;;8403441;28;20393;-71
2024/03/30 06:47:09;;;;;;;;;;;10.50;99.90;;;;;;8409197;28;19998;-71
2024/03/30 06:51:09;;;;;;;;;;;10.60;99.90;;;;;;8406638;28;20297;-71
2024/03/30 06:55:10;;;;;;;;;;;10.50;99.90;;;;;;8401104;28;19920;-71
2024/03/30 06:59:12;;;;;;;;;;;10.50;99.90;;;;;;8406365;28;19931;-71
2024/03/30 07:03:13;;;;;;;;;;;10.60;99.90;;;;;;8390878;28;19930;-71
2024/03/30 07:07:15;;;;;;;;;;;10.60;99.90;;;;;;8408741;28;20006;-71
2024/03/30 07:11:17;;;;;;;;;;;10.60;99.90;;;;;;8398497;28;20381;-71
2024/03/30 07:15:18;;;;;;;;;;;10.60;99.90;;;;;;8392960;28;20057;-71
2024/03/30 07:19:18;;;;;;;;;;;10.70;99.90;;;;;;8387949;28;19920;-71
2024/03/30 07:23:20;;;;;;;;;;;10.70;99.90;;;;;;8402462;28;19920;-71
2024/03/30 07:27:21;;;;;;;;;;;10.70;99.90;;;;;;8404006;28;20065;-71
2024/03/30 07:31:22;;;;;;;;;;;10.80;99.90;;;;;;8430501;28;19931;-71
2024/03/30 07:35:39;;;;;;;;;;;10.90;99.90;;;;;;8405894;28;20431;-71
2024/03/30 07:39:40;;;;;;;;;;;10.90;99.90;;;;;;8407407;28;19920;-71
2024/03/30 07:43:41;;;;;;;;;;;10.90;99.90;;;;;;8402423;28;20030;-71
2024/03/30 07:47:42;;;;;;;;;;;10.90;99.90;;;;;;8390676;28;19920;-72
2024/03/30 07:51:43;;;;;;;;;;;11.00;99.90;;;;;;8387339;28;20003;-70
2024/03/30 07:55:43;;;;;;;;;;;11.00;99.90;;;;;;8405452;28;19965;-71
2024/03/30 07:59:44;;;;;;;;;;;11.00;99.90;;;;;;8402996;28;19928;-71
2024/03/30 08:03:45;;;;;;;;;;;11.00;99.90;;;;;;8398637;28;19927;-71
2024/03/30 08:07:46;;;;;;;;;;;11.00;99.90;;;;;;8403510;28;20420;-71
2024/03/30 08:11:48;;;;;;;;;;;11.00;99.90;;;;;;8405685;28;20317;-71
2024/03/30 08:15:49;;;;;;;;;;;11.00;99.90;;;;;;8388112;28;19999;-71
2024/03/30 08:19:50;;;;;;;;;;;11.00;99.90;;;;;;8389223;28;19924;-71
2024/03/30 08:23:51;;;;;;;;;;;11.00;99.90;;;;;;8405775;28;19926;-71
2024/03/30 08:27:51;;;;;;;;;;;11.10;99.90;;;;;;8396895;28;19919;-71
2024/03/30 08:31:52;;;;;;;;;;;11.20;99.90;;;;;;8390986;28;20338;-71
2024/03/30 08:35:53;;;;;;;;;;;11.30;99.90;;;;;;8404256;28;19920;-71
2024/03/30 08:39:54;;;;;;;;;;;11.50;99.90;;;;;;8401357;28;20503;-71
2024/03/30 08:43:54;;;;;;;;;;;11.60;99.90;;;;;;8387019;28;20367;-71
2024/03/30 08:47:55;;;;;;;;;;;11.70;99.90;;;;;;8387433;28;20351;-71
2024/03/30 08:51:56;;;;;;;;;;;11.70;99.90;;;;;;8400319;28;19920;-71
2024/03/30 08:56:00;;;;;;;;;;;11.80;99.90;;;;;;8408527;28;19966;-71
2024/03/30 09:00:01;;;;;;;;;;;11.80;99.90;;;;;;8408505;28;19999;-71
2024/03/30 09:04:02;;;;;;;;;;;11.80;99.90;;;;;;8405122;28;19920;-71
2024/03/30 09:08:03;;;;;;;;;;;11.90;99.90;;;;;;8403645;28;20007;-72
2024/03/30 09:12:05;;;;;;;;;;;12.00;99.90;;;;;;8397386;28;19927;-71
2024/03/30 09:16:06;;;;;;;;;;;12.00;99.90;;;;;;8426944;28;20391;-71
2024/03/30 09:20:07;;;;;;;;;;;12.00;99.90;;;;;;8401517;28;20282;-72
2024/03/30 09:24:08;;;;;;;;;;;12.00;99.90;;;;;;8383326;28;19920;-71
2024/03/30 09:28:09;;;;;;;;;;;12.10;99.90;;;;;;8401876;28;19924;-71
2024/03/30 09:32:10;;;;;;;;;;;12.30;99.90;;;;;;8389746;28;20015;-71
2024/03/30 09:36:14;;;;;;;;;;;12.50;99.90;;;;;;8394710;28;19935;-71
2024/03/30 09:40:15;;;;;;;;;;;12.70;99.90;;;;;;8412723;28;20003;-72
2024/03/30 09:44:16;;;;;;;;;;;12.80;99.90;;;;;;8384298;28;19920;-71
2024/03/30 09:48:18;;;;;;;;;;;12.90;99.90;;;;;;8410646;28;20011;-71
2024/03/30 09:52:20;;;;;;;;;;;12.90;99.90;;;;;;8408217;28;19927;-71
2024/03/30 09:56:24;;;;;;;;;;;12.90;99.90;;;;;;8401408;28;20371;-71
2024/03/30 10:00:26;;;;;;;;;;;12.90;99.90;;;;;;8393633;28;20381;-71
2024/03/30 10:04:27;;;;;;;;;;;12.80;99.90;;;;;;8409664;28;19931;-71
2024/03/30 10:08:31;;;;;;;;;;;12.70;99.90;;;;;;8394911;28;20290;-71
2024/03/30 10:12:36;;;;;;;;;;;12.70;99.90;;;;;;8406833;28;20015;-71
2024/03/30 10:16:37;;;;;;;;;;;12.70;99.90;;;;;;8401406;28;19926;-71
2024/03/30 10:20:38;;;;;;;;;;;12.80;99.90;;;;;;8389049;28;19923;-72
2024/03/30 10:24:39;;;;;;;;;;;12.80;99.90;;;;;;8398788;28;19923;-71
2024/03/30 10:33:43;;;;;;;;;;;13.00;99.90;;;;;;8426385;28;19923;-71
2024/03/30 10:37:44;;;;;;;;;;;13.20;99.90;;;;;;8405853;28;20359;-71
2024/03/30 10:41:46;;;;;;;;;;;13.30;99.90;;;;;;8397038;28;20276;-71
2024/03/30 10:45:47;;;;;;;;;;;13.40;99.90;;;;;;8394909;28;20340;-71
2024/03/30 10:49:48;;;;;;;;;;;13.40;99.90;;;;;;8412254;28;20011;-71
2024/03/30 10:53:49;;;;;;;;;;;13.40;99.90;;;;;;8386772;28;20023;-71
2024/03/30 10:57:53;;;;;;;;;;;13.40;99.90;;;;;;8408243;28;19930;-72
2024/03/30 11:01:54;;;;;;;;;;;13.30;99.90;;;;;;8403823;28;19994;-71
2024/03/30 11:05:55;;;;;;;;;;;13.30;99.90;;;;;;8407661;28;20012;-71
2024/03/30 11:09:57;;;;;;;;;;;13.40;99.90;;;;;;8401768;28;20042;-71
2024/03/30 11:13:57;;;;;;;;;;;13.50;99.90;;;;;;8403306;28;19945;-71
2024/03/30 11:18:00;;;;;;;;;;;13.70;99.90;;;;;;8363979;28;19924;-72
2024/03/30 11:22:05;;;;;;;;;;;13.90;99.90;;;;;;8396539;28;20006;-72
2024/03/30 11:31:22;;;;;;;;;;;14.40;99.90;;;;;;8423600;28;19915;-71
2024/03/30 11:35:27;;;;;;;;;;;14.70;99.90;;;;;;8405932;28;19995;-72
2024/03/30 11:39:32;;;;;;;;;;;15.00;99.90;;;;;;8405556;28;19926;-71
2024/03/30 11:43:39;;;;;;;;;;;15.30;99.90;;;;;;8375448;28;20034;-71
2024/03/30 11:47:41;;;;;;;;;;;15.40;99.90;;;;;;8405260;28;19920;-71
2024/03/30 11:51:41;;;;;;;;;;;15.30;99.90;;;;;;8402404;28;19923;-71
2024/03/30 11:55:45;;;;;;;;;;;15.30;99.90;;;;;;8392628;28;20375;-71
2024/03/30 11:59:51;;;;;;;;;;;15.20;99.90;;;;;;8392705;28;19928;-72
2024/03/30 12:03:52;;;;;;;;;;;15.30;99.90;;;;;;8431964;28;20014;-71
2024/03/30 12:07:54;;;;;;;;;;;15.10;99.90;;;;;;8403850;28;19998;-71
2024/03/30 12:12:10;;;;;;;;;;;14.90;99.90;;;;;;8411390;28;20014;-72
2024/03/30 12:16:11;;;;;;;;;;;14.70;99.90;;;;;;8405659;28;20010;-72
2024/03/30 12:20:12;;;;;;;;;;;14.40;99.90;;;;;;8401827;28;20015;-72
2024/03/30 12:24:13;;;;;;;;;;;14.10;99.90;;;;;;8384021;28;19927;-71
2024/03/30 12:28:14;;;;;;;;;;;14.00;99.90;;;;;;8398924;28;19979;-71
2024/03/30 12:32:15;;;;;;;;;;;13.90;99.90;;;;;;8412170;28;19927;-71
2024/03/30 12:36:16;;;;;;;;;;;13.90;99.90;;;;;;8412162;28;20007;-72
2024/03/30 12:40:19;;;;;;;;;;;13.90;99.90;;;;;;8386289;28;20011;-71
2024/03/30 12:44:20;;;;;;;;;;;13.80;99.90;;;;;;8395260;28;19927;-71
2024/03/30 12:48:21;;;;;;;;;;;13.70;99.90;;;;;;8407424;28;19928;-72
2024/03/30 12:52:22;;;;;;;;;;;13.50;99.90;;;;;;8377913;28;19946;-71
2024/03/30 12:56:23;;;;;;;;;;;13.30;99.90;;;;;;8373784;28;20010;-71
2024/03/30 13:00:24;;;;;;;;;;;13.00;99.90;;;;;;8394467;28;19999;-71
2024/03/30 13:04:27;;;;;;;;;;;12.70;99.90;;;;;;8393950;28;20335;-71
2024/03/30 13:08:28;;;;;;;;;;;12.60;99.90;;;;;;8388092;28;20334;-70
2024/03/30 13:12:30;;;;;;;;;;;12.50;99.90;;;;;;8394418;28;20015;-71
2024/03/30 13:16:31;;;;;;;;;;;12.40;99.90;;;;;;8403450;28;20049;-72
2024/03/30 13:20:32;;;;;;;;;;;12.40;99.90;;;;;;8415388;28;19922;-71
2024/03/30 13:24:33;;;;;;;;;;;12.40;99.90;;;;;;8399487;28;20011;-71
2024/03/30 13:28:33;;;;;;;;;;;12.50;99.90;;;;;;8369304;28;19981;-71
2024/03/30 13:32:38;;;;;;;;;;;12.40;99.90;;;;;;8381175;28;19955;-71
2024/03/30 13:36:38;;;;;;;;;;;12.30;99.90;;;;;;8387758;28;19920;-71
2024/03/30 13:40:39;;;;;;;;;;;12.30;99.90;;;;;;8386742;28;20286;-71
2024/03/30 13:44:40;;;;;;;;;;;12.20;99.90;;;;;;8393805;28;19924;-71
2024/03/30 13:48:41;;;;;;;;;;;12.00;99.90;;;;;;8375408;28;19967;-71
2024/03/30 13:52:42;;;;;;;;;;;11.90;99.90;;;;;;8381012;28;19924;-71
2024/03/30 13:56:43;;;;;;;;;;;11.80;99.90;;;;;;8401957;28;19920;-71
2024/03/30 14:00:44;;;;;;;;;;;11.80;99.90;;;;;;8407472;28;19945;-71
2024/03/30 14:04:45;;;;;;;;;;;11.70;99.90;;;;;;8387122;28;20434;-71
2024/03/30 14:08:46;;;;;;;;;;;11.70;99.90;;;;;;8405787;28;20284;-71
2024/03/30 14:12:46;;;;;;;;;;;11.60;99.90;;;;;;8393418;28;19920;-71
2024/03/30 14:16:47;;;;;;;;;;;11.50;99.90;;;;;;8405132;28;19959;-71
2024/03/30 14:20:48;;;;;;;;;;;11.50;99.90;;;;;;8411541;28;20007;-71
2024/03/30 14:24:49;;;;;;;;;;;11.50;99.90;;;;;;8383845;28;20379;-71
2024/03/30 14:28:49;;;;;;;;;;;11.60;99.90;;;;;;8403353;28;19920;-71
2024/03/30 14:32:50;;;;;;;;;;;11.60;99.90;;;;;;8386231;28;20295;-71
2024/03/30 14:36:51;;;;;;;;;;;11.60;99.90;;;;;;8402314;28;19971;-72
2024/03/30 14:40:52;;;;;;;;;;;11.60;99.90;;;;;;8401389;28;20370;-71
2024/03/30 14:44:52;;;;;;;;;;;11.60;99.90;;;;;;8407748;28;20432;-72
2024/03/30 14:48:54;;;;;;;;;;;11.50;99.90;;;;;;8404243;28;20308;-71
2024/03/30 14:52:55;;;;;;;;;;;11.40;99.90;;;;;;8398796;28;20010;-71
2024/03/30 15:01:59;;;;;;;;;;;11.10;99.90;;;;;;8417058;28;20491;-72
2024/03/30 15:06:03;;;;;;;;;;;11.00;99.90;;;;;;8394967;28;20295;-71
2024/03/30 15:10:04;;;;;;;;;;;10.90;99.90;;;;;;8396111;28;19929;-72
2024/03/30 15:14:05;;;;;;;;;;;10.90;99.90;;;;;;8399737;28;20247;-72
2024/03/30 15:18:06;;;;;;;;;;;11.00;99.90;;;;;;8402733;28;19920;-72
2024/03/30 15:22:07;;;;;;;;;;;11.00;99.90;;;;;;8379890;28;20007;-72
2024/03/30 15:26:12;;;;;;;;;;;11.00;99.90;;;;;;8405738;28;19924;-71
2024/03/30 15:34:52;;;;;;;;;;;11.10;99.90;;;;;;8303855;28;19926;-71
2024/03/30 15:38:53;;;;;;;;;;;11.10;99.90;;;;;;8305524;28;19921;-71
2024/03/30 15:48:03;;;;;;;;;;;11.10;99.90;;;;;;8329178;28;19919;-71
2024/03/30 15:52:04;;;;;;;;;;;11.10;99.90;;;;;;8350151;28;19920;-72
2024/03/30 15:56:15;;;;;;;;;;;11.10;99.90;;;;;;8405920;28;19947;-72
2024/03/30 16:00:17;;;;;;;;;;;11.00;99.90;;;;;;8379613;28;19975;-71
2024/03/30 16:04:18;;;;;;;;;;;11.00;99.90;;;;;;8395746;28;20037;-71
2024/03/30 16:08:19;;;;;;;;;;;10.90;99.90;;;;;;8384279;28;19948;-72
2024/03/30 16:12:20;;;;;;;;;;;10.90;99.90;;;;;;8392845;28;20339;-72
2024/03/30 16:16:22;;;;;;;;;;;10.90;99.90;;;;;;8373423;28;19920;-72
2024/03/30 16:20:23;;;;;;;;;;;10.90;99.90;;;;;;8406031;28;19920;-72
2024/03/30 16:24:23;;;;;;;;;;;10.90;99.90;;;;;;8385760;28;20013;-71
2024/03/30 16:28:24;;;;;;;;;;;10.80;99.90;;;;;;8379350;28;19924;-71
2024/03/30 16:32:25;;;;;;;;;;;10.80;99.90;;;;;;8378977;28;19964;-72
2024/03/30 16:36:26;;;;;;;;;;;10.80;99.90;;;;;;8396745;28;20011;-72
2024/03/30 16:40:27;;;;;;;;;;;10.80;99.90;;;;;;8391200;28;19969;-72
2024/03/30 16:44:28;;;;;;;;;;;10.90;99.90;;;;;;8353746;28;20384;-71
2024/03/30 16:48:30;;;;;;;;;;;10.80;99.90;;;;;;8368297;28;19973;-72
2024/03/30 16:52:31;;;;;;;;;;;10.90;99.90;;;;;;8379066;28;19924;-72
2024/03/30 16:56:32;;;;;;;;;;;11.00;99.90;;;;;;8387447;28;20032;-72
2024/03/30 17:00:32;;;;;;;;;;;11.10;99.90;;;;;;8372105;28;19968;-71
2024/03/30 17:04:33;;;;;;;;;;;11.20;99.90;;;;;;8366970;28;19924;-72
2024/03/30 17:08:34;;;;;;;;;;;11.20;99.90;;;;;;8368455;28;20019;-71
2024/03/30 17:12:39;;;;;;;;;;;11.20;99.90;;;;;;8398637;28;20007;-72
2024/03/30 17:16:46;;;;;;;;;;;11.30;99.90;;;;;;8368001;28;19973;-72
2024/03/30 17:20:56;;;;;;;;;;;11.30;99.90;;;;;;8391706;28;19921;-72
2024/03/30 17:24:57;;;;;;;;;;;11.30;99.90;;;;;;8369474;28;19921;-71
2024/03/30 17:28:58;;;;;;;;;;;11.40;99.90;;;;;;8357626;28;19934;-72
2024/03/30 17:32:59;;;;;;;;;;;11.40;99.90;;;;;;8370797;28;20473;-72
2024/03/30 17:36:59;;;;;;;;;;;11.30;99.90;;;;;;8377932;28;20437;-72
2024/03/30 17:41:10;;;;;;;;;;;11.20;99.90;;;;;;8370198;28;19920;-72
2024/03/30 17:45:11;;;;;;;;;;;11.00;99.90;;;;;;8371116;28;19927;-71
2024/03/30 17:49:12;;;;;;;;;;;10.90;99.90;;;;;;8372104;28;19928;-72
2024/03/30 17:53:12;;;;;;;;;;;10.90;99.90;;;;;;8397078;28;19920;-72
2024/03/30 17:57:13;;;;;;;;;;;10.70;99.90;;;;;;8375673;28;19963;-71
2024/03/30 18:01:16;;;;;;;;;;;10.60;99.90;;;;;;8369701;28;19926;-72
2024/03/30 18:05:17;;;;;;;;;;;10.60;99.90;;;;;;8379900;28;20398;-71
2024/03/30 18:09:18;;;;;;;;;;;10.40;99.90;;;;;;8371741;28;20316;-72
2024/03/30 18:13:19;;;;;;;;;;;10.40;99.90;;;;;;8363362;28;20023;-73
2024/03/30 18:17:20;;;;;;;;;;;10.30;99.90;;;;;;8386124;28;19928;-71
2024/03/30 18:21:20;;;;;;;;;;;10.30;99.90;;;;;;8369648;28;20019;-72
2024/03/30 18:25:52;;;;;;;;;;;10.20;99.90;;;;;;8382487;28;20630;-72
2024/03/30 18:29:53;;;;;;;;;;;10.20;99.90;;;;;;8371848;28;19926;-71
2024/03/30 18:33:54;;;;;;;;;;;10.10;99.90;;;;;;8378460;28;19960;-72
2024/03/30 18:37:55;;;;;;;;;;;10.00;99.90;;;;;;8362088;28;19928;-71
2024/03/30 18:41:56;;;;;;;;;;;10.00;99.90;;;;;;8381086;28;20020;-72
2024/03/30 18:46:00;;;;;;;;;;;9.90;99.90;;;;;;8382402;28;20588;-72
2024/03/30 18:50:01;;;;;;;;;;;9.90;99.90;;;;;;8382399;28;19924;-72
2024/03/30 18:54:02;;;;;;;;;;;9.90;99.90;;;;;;8402020;28;19942;-71
2024/03/30 18:58:03;;;;;;;;;;;9.80;99.90;;;;;;8370509;28;19930;-71
2024/03/30 19:02:04;;;;;;;;;;;9.70;99.90;;;;;;8370443;28;19938;-72
2024/03/30 19:06:05;;;;;;;;;;;9.60;99.90;;;;;;8369924;28;20027;-72
2024/03/30 19:10:06;;;;;;;;;;;9.60;99.90;;;;;;8367527;28;20410;-72
2024/03/30 19:14:10;;;;;;;;;;;9.50;99.90;;;;;;8367672;28;20309;-72
2024/03/30 19:18:11;;;;;;;;;;;9.50;99.90;;;;;;8373789;28;19920;-71
2024/03/30 19:22:12;;;;;;;;;;;9.50;99.90;;;;;;8387149;28;19924;-72
2024/03/30 19:26:13;;;;;;;;;;;9.50;99.90;;;;;;8368699;28;20007;-72
2024/03/30 19:30:13;;;;;;;;;;;9.50;99.90;;;;;;8352095;28;19961;-72
2024/03/30 19:34:14;;;;;;;;;;;9.50;99.90;;;;;;8356660;28;20298;-71
2024/03/30 19:38:15;;;;;;;;;;;9.60;99.90;;;;;;8367008;28;20471;-72
2024/03/30 19:42:16;;;;;;;;;;;9.60;99.90;;;;;;8365599;28;20490;-72
2024/03/30 19:46:42;;;;;;;;;;;9.60;99.90;;;;;;8368417;28;19928;-71
2024/03/30 19:50:43;;;;;;;;;;;9.60;99.90;;;;;;8386250;28;19920;-72
2024/03/30 19:54:45;;;;;;;;;;;9.60;99.90;;;;;;8382662;28;20599;-72
2024/03/30 19:58:46;;;;;;;;;;;9.70;99.90;;;;;;8386723;28;19924;-72
2024/03/30 20:02:47;;;;;;;;;;;9.80;99.90;;;;;;8366617;28;19927;-72
2024/03/30 20:06:48;;;;;;;;;;;9.80;99.90;;;;;;8368490;28;19920;-71
2024/03/30 20:10:50;;;;;;;;;;;9.90;99.90;;;;;;8369447;28;19954;-72
2024/03/30 20:14:51;;;;;;;;;;;9.90;99.90;;;;;;8370894;28;19960;-72
2024/03/30 20:18:52;;;;;;;;;;;9.90;99.90;;;;;;8375800;28;20399;-72
2024/03/30 20:22:52;;;;;;;;;;;9.90;99.90;;;;;;8355610;28;20318;-72
2024/03/30 20:26:53;;;;;;;;;;;9.90;99.90;;;;;;8370733;28;20030;-72
2024/03/30 20:30:58;;;;;;;;;;;9.90;99.90;;;;;;8354504;28;19921;-72
2024/03/30 20:34:58;;;;;;;;;;;9.80;99.90;;;;;;8355433;28;19924;-72
2024/03/30 20:38:59;;;;;;;;;;;9.90;99.90;;;;;;8371836;28;19973;-71
2024/03/30 20:43:00;;;;;;;;;;;9.80;99.90;;;;;;8367078;28;19978;-72
2024/03/30 20:47:01;;;;;;;;;;;9.80;99.90;;;;;;8372486;28;19924;-72
2024/03/30 20:51:02;;;;;;;;;;;9.80;99.90;;;;;;8369268;28;19932;-72
2024/03/30 21:00:06;;;;;;;;;;;9.80;99.90;;;;;;8384442;28;19939;-72
2024/03/30 21:04:07;;;;;;;;;;;9.80;99.90;;;;;;8367195;28;20382;-71
2024/03/30 21:08:08;;;;;;;;;;;9.80;99.90;;;;;;8367833;28;20352;-72
2024/03/30 21:12:09;;;;;;;;;;;9.80;99.90;;;;;;8368101;28;20374;-71
2024/03/30 21:16:10;;;;;;;;;;;9.80;99.90;;;;;;8353320;28;20257;-72
2024/03/30 21:20:11;;;;;;;;;;;9.80;99.90;;;;;;8368132;28;20413;-72
2024/03/30 21:24:12;;;;;;;;;;;9.80;99.90;;;;;;8369701;28;20276;-71
2024/03/30 21:28:12;;;;;;;;;;;9.80;99.90;;;;;;8361608;28;19964;-71
2024/03/30 21:32:13;;;;;;;;;;;9.80;99.90;;;;;;8381286;28;19920;-72
2024/03/30 21:36:14;;;;;;;;;;;9.80;99.90;;;;;;8371302;28;19974;-71
2024/03/30 21:40:15;;;;;;;;;;;9.80;99.90;;;;;;8374212;28;20338;-72
2024/03/30 21:44:16;;;;;;;;;;;9.80;99.90;;;;;;8371387;28;19920;-72
2024/03/30 21:48:16;;;;;;;;;;;9.80;99.90;;;;;;8357048;28;20023;-71
2024/03/30 21:52:17;;;;;;;;;;;9.80;99.90;;;;;;8377259;28;20020;-72
2024/03/30 21:56:18;;;;;;;;;;;9.80;99.90;;;;;;8370070;28;24692;-71
2024/03/30 22:00:19;;;;;;;;;;;9.70;99.90;;;;;;8373697;28;20051;-71
2024/03/30 22:04:20;;;;;;;;;;;9.60;99.90;;;;;;8394876;28;20023;-72
2024/03/30 22:08:21;;;;;;;;;;;9.50;99.90;;;;;;8411804;28;20007;-71
2024/03/30 22:12:22;;;;;;;;;;;9.40;99.90;;;;;;8409501;28;19920;-72
2024/03/30 22:16:23;;;;;;;;;;;9.30;99.90;;;;;;8400909;28;19923;-71
2024/03/30 22:20:23;;;;;;;;;;;9.20;99.90;;;;;;8385927;28;19973;-71
2024/03/30 22:24:24;;;;;;;;;;;9.10;99.90;;;;;;8376606;28;19924;-72
2024/03/30 22:28:25;;;;;;;;;;;9.10;99.90;;;;;;8410268;28;20427;-72
2024/03/30 22:32:26;;;;;;;;;;;9.00;99.90;;;;;;8391245;28;19985;-71
2024/03/30 22:36:27;;;;;;;;;;;8.90;99.90;;;;;;8388207;28;20003;-72
2024/03/30 22:40:33;;;;;;;;;;;8.90;99.90;;;;;;8386521;28;19924;-71
2024/03/30 22:44:34;;;;;;;;;;;8.80;99.90;;;;;;8426147;28;19999;-71
2024/03/30 22:48:35;;;;;;;;;;;8.70;99.90;;;;;;8408666;28;19958;-71
2024/03/30 22:52:36;;;;;;;;;;;8.70;99.90;;;;;;8418954;28;20345;-72
2024/03/30 22:56:36;;;;;;;;;;;8.60;99.90;;;;;;8375487;28;20366;-71
2024/03/30 23:00:37;;;;;;;;;;;8.50;99.90;;;;;;8382986;28;19920;-72
2024/03/30 23:04:38;;;;;;;;;;;8.50;99.90;;;;;;8387960;28;19967;-72
2024/03/30 23:08:39;;;;;;;;;;;8.50;99.90;;;;;;8382109;28;20263;-71
2024/03/30 23:12:40;;;;;;;;;;;8.50;99.90;;;;;;8409408;28;19928;-72
2024/03/30 23:16:40;;;;;;;;;;;8.40;99.90;;;;;;8386281;28;20426;-72
2024/03/30 23:20:45;;;;;;;;;;;8.40;99.90;;;;;;8382864;28;20031;-72
2024/03/30 23:24:46;;;;;;;;;;;8.30;99.90;;;;;;8411378;28;20015;-71
2024/03/30 23:28:47;;;;;;;;;;;8.20;99.90;;;;;;8407484;28;20770;-72
2024/03/30 23:32:48;;;;;;;;;;;8.10;99.90;;;;;;8406647;28;20336;-71
2024/03/30 23:36:49;;;;;;;;;;;8.00;99.90;;;;;;8396248;28;20034;-71
2024/03/30 23:40:50;;;;;;;;;;;8.00;99.90;;;;;;8383090;28;19971;-72
2024/03/30 23:44:51;;;;;;;;;;;7.90;99.90;;;;;;8401062;28;20049;-72
2024/03/30 23:48:52;;;;;;;;;;;7.90;99.90;;;;;;8431427;28;19923;-72
2024/03/30 23:52:53;;;;;;;;;;;7.90;99.90;;;;;;8386891;28;20315;-72
2024/03/30 23:56:54;;;;;;;;;;;8.00;99.90;;;;;;8401889;28;19927;-72
